Paamiut

KL  EN  DA
ASIAQ
Weather Now GREENLAND SURVEY
Updated [WGT/WGST] Temperature [°C] Wind [m/s] Air pressure [hPa] Relative humidity [%] Precipitation [mm]
Present Wind chill Speed Max
21.01 20:00-7,60,00,1 ⇑0,6993450,0
21.01 19:00-8,20,00,7 ⇐1,2994460,0
21.01 18:00-7,90,00,4 ⇐0,7994430,0
21.01 17:00-8,3-14,13,6 ⇐4,9994490,0
21.01 16:00-8,8-12,51,9 ⇐2,3995550,0
21.01 15:00-8,6-12,62,1 ⇐2,8995610,0
21.01 14:00-9,6-14,52,6 ⇐3,2995700,0
21.01 13:00-8,8-13,92,9 ⇐3,5996850,0
21.01 12:00-8,3-14,13,6 ⇖4,1997900,0
21.01 11:00-8,8-12,62,0 ⇖2,3997810,0
21.01 10:00-8,6-12,11,8 ⇖2,2997810,0
21.01 09:00-7,9-12,22,4 ⇘4,6997730,0
21.01 08:00-8,0-13,73,5 ⇘4,5997821,7
21.01 07:00-8,9-12,61,9 ⇖2,8997890,0
21.01 06:00-8,4-13,73,1 ⇒4,4997881,4
21.01 05:00-7,7-13,23,4 ⇘4,2997920,3
21.01 04:00-8,0-12,12,2 ⇘3,0997900,2
21.01 03:00-8,2-13,93,5 ⇘4,7996940,4
21.01 02:00-7,7-14,14,4 ⇒5,6996860,0
21.01 01:00-7,6-15,26,2 ⇒7,6995830,0
21.01 00:00-7,4-14,04,9 ⇘7,7995720,0
20.01 23:00-7,0-13,04,1 ⇘5,4995700,0
20.01 22:00-7,1-14,96,8 ⇘8,8994740,0
20.01 21:00-6,7-14,57,1 ⇘9,1994720,0
20.01 20:00-6,7-16,210,6 ⇘12,2992830,4
Position: (62.01666667,-49.666667)

[Back]